createdAt,value
2022-09-12T00:02:52.084Z,17.1
2022-09-12T00:08:52.421Z,16.9
2022-09-12T00:14:52.460Z,16.9
2022-09-12T00:20:51.916Z,16.8
2022-09-12T00:26:51.904Z,16.4
2022-09-12T00:32:51.760Z,16.5
2022-09-12T00:38:52.136Z,16.5
2022-09-12T00:44:52.323Z,16.6
2022-09-12T00:50:51.524Z,16.4
2022-09-12T00:56:51.657Z,16.4
2022-09-12T01:02:51.725Z,16.4
2022-09-12T01:08:52.367Z,16.4
2022-09-12T01:14:51.843Z,16.4
2022-09-12T01:20:51.663Z,16.3
2022-09-12T01:26:51.439Z,16.3
2022-09-12T01:32:51.704Z,16.3
2022-09-12T01:38:51.421Z,16
2022-09-12T01:44:51.546Z,16
2022-09-12T01:50:51.631Z,16
2022-09-12T01:56:51.674Z,15.9
2022-09-12T02:02:52.099Z,15.9
2022-09-12T02:08:52.504Z,15.9
2022-09-12T02:14:51.712Z,16
2022-09-12T02:20:51.733Z,16
2022-09-12T02:26:51.756Z,15.9
2022-09-12T02:32:51.622Z,15.9
2022-09-12T02:38:51.699Z,15.8
2022-09-12T02:44:52.056Z,15.8
2022-09-12T02:50:51.946Z,15.7
2022-09-12T02:56:51.987Z,15.5
2022-09-12T03:02:51.821Z,15.6
2022-09-12T03:08:51.487Z,15.6
2022-09-12T03:14:51.501Z,15.6
2022-09-12T03:20:51.499Z,15.6
2022-09-12T03:26:51.570Z,15.6
2022-09-12T03:32:52.050Z,15.6
2022-09-12T03:38:53.309Z,15.5
2022-09-12T03:44:52.251Z,15.5
2022-09-12T03:50:52.457Z,15.4
2022-09-12T03:56:53.740Z,15.4
2022-09-12T04:02:54.457Z,15.3
2022-09-12T04:08:52.677Z,15.3
2022-09-12T04:14:53.160Z,15.3
2022-09-12T04:20:52.890Z,15.2
2022-09-12T04:26:52.310Z,15.2
2022-09-12T04:32:52.382Z,15.2
2022-09-12T04:38:52.135Z,15.2
2022-09-12T04:44:51.912Z,15.2
2022-09-12T04:50:51.919Z,15.2
2022-09-12T04:56:52.664Z,15.2
2022-09-12T05:02:52.910Z,15
2022-09-12T05:08:52.309Z,15
2022-09-12T05:14:53.106Z,15
2022-09-12T05:20:52.518Z,15
2022-09-12T05:26:52.330Z,15
2022-09-12T05:32:53.028Z,15
2022-09-12T05:38:53.135Z,15.2
2022-09-12T05:44:53.016Z,15.4
2022-09-12T05:50:52.063Z,15.5
2022-09-12T05:56:52.357Z,15.6
2022-09-12T06:02:54.850Z,15.6
2022-09-12T06:08:52.001Z,15.8
2022-09-12T06:14:52.176Z,15.8
2022-09-12T06:20:52.321Z,15.7
2022-09-12T06:26:53.195Z,15.9
2022-09-12T06:32:52.585Z,16
2022-09-12T06:38:52.133Z,16.3
2022-09-12T06:44:53.250Z,16.3
2022-09-12T06:50:52.893Z,16.6
2022-09-12T06:56:52.158Z,16.7
2022-09-12T07:02:52.907Z,16.9
2022-09-12T07:08:52.126Z,17.1
2022-09-12T07:14:53.341Z,17.2
2022-09-12T07:20:54.422Z,17.3
2022-09-12T07:26:53.086Z,17.4
2022-09-12T07:32:52.965Z,17.5
2022-09-12T07:38:56.743Z,17.7
2022-09-12T07:44:53.449Z,17.5
2022-09-12T07:50:53.714Z,17.7
2022-09-12T07:56:52.611Z,17.8
2022-09-12T08:02:53.015Z,18
2022-09-12T08:08:53.103Z,18.3
2022-09-12T08:14:52.217Z,18.4
2022-09-12T08:20:52.145Z,18.8
2022-09-12T08:26:53.917Z,19.1
2022-09-12T08:32:52.897Z,19.3
2022-09-12T08:38:55.310Z,19.4
2022-09-12T08:44:52.072Z,19.5
2022-09-12T08:50:51.708Z,19.7
2022-09-12T08:56:52.312Z,19.7
2022-09-12T09:02:52.380Z,19.9
2022-09-12T09:08:51.594Z,19.9
2022-09-12T09:14:51.668Z,20
2022-09-12T09:20:51.926Z,20.2
2022-09-12T09:26:51.899Z,20.2
2022-09-12T09:32:52.004Z,20.4
2022-09-12T09:38:54.142Z,20.6
2022-09-12T09:44:52.197Z,20.8
2022-09-12T09:50:52.093Z,21.1
2022-09-12T09:56:52.375Z,21.3
2022-09-12T10:02:51.795Z,21.7
2022-09-12T10:08:52.067Z,22
2022-09-12T10:14:52.003Z,22.2
2022-09-12T10:20:52.688Z,22.4
2022-09-12T10:26:56.839Z,22.5
2022-09-12T10:32:52.512Z,22.8
2022-09-12T10:38:51.981Z,22.9
2022-09-12T10:44:52.343Z,23
2022-09-12T10:50:51.864Z,23.2
2022-09-12T10:56:52.459Z,23.3
2022-09-12T11:02:51.771Z,23.7
2022-09-12T11:08:51.715Z,23.8
2022-09-12T11:14:51.690Z,23.8
2022-09-12T11:20:51.710Z,24.1
2022-09-12T11:26:51.796Z,24.1
2022-09-12T11:32:51.743Z,24.4
2022-09-12T11:38:51.894Z,24.6
2022-09-12T11:44:51.932Z,24.9
2022-09-12T11:50:51.905Z,25.1
2022-09-12T11:56:51.939Z,25.2
2022-09-12T12:02:51.862Z,25.4
2022-09-12T12:08:52.123Z,25.7
2022-09-12T12:14:52.048Z,25.9
2022-09-12T12:20:52.019Z,26.2
2022-09-12T12:26:51.864Z,26.3
2022-09-12T12:32:51.733Z,26.4
2022-09-12T12:38:51.795Z,26.4
2022-09-12T12:44:51.756Z,27
2022-09-12T12:50:51.849Z,27.1
2022-09-12T12:56:52.005Z,27.3
2022-09-12T13:02:51.955Z,27.2
2022-09-12T13:08:52.438Z,27.4
2022-09-12T13:14:52.259Z,27.6
2022-09-12T13:20:51.979Z,27.9
2022-09-12T13:26:54.065Z,28.4
2022-09-12T13:32:52.428Z,28.9
2022-09-12T13:38:52.036Z,28.9
2022-09-12T13:44:51.882Z,28.9
2022-09-12T13:50:52.218Z,29.5
2022-09-12T13:56:52.133Z,29.6
2022-09-12T14:02:52.352Z,30.3
2022-09-12T14:08:52.540Z,30.5
2022-09-12T14:14:52.214Z,30.6
2022-09-12T14:20:53.205Z,30.9
2022-09-12T14:26:52.958Z,30.9
2022-09-12T14:32:52.875Z,31.3
2022-09-12T14:38:52.298Z,31.7
2022-09-12T14:44:53.288Z,31.9
2022-09-12T14:50:52.239Z,31.9
2022-09-12T14:56:52.365Z,32.1
2022-09-12T15:02:51.999Z,32.1
2022-09-12T15:08:52.578Z,32.4
2022-09-12T15:14:52.855Z,32.6
2022-09-12T15:20:54.033Z,33.1
2022-09-12T15:26:53.602Z,33
2022-09-12T15:32:52.932Z,33.5
2022-09-12T15:38:53.220Z,33.8
2022-09-12T15:44:53.379Z,34.1
2022-09-12T15:50:53.217Z,35.1
2022-09-12T15:56:53.627Z,35.4
2022-09-12T16:02:53.873Z,35.1
2022-09-12T16:08:52.569Z,34.8
2022-09-12T16:14:55.890Z,33.6
2022-09-12T16:20:52.638Z,33.9
2022-09-12T16:26:54.423Z,33.7
2022-09-12T16:32:53.150Z,32.8
2022-09-12T16:38:56.005Z,32.6
2022-09-12T16:44:52.543Z,31.1
2022-09-12T16:50:53.878Z,30.3
2022-09-12T16:56:55.251Z,29.5
2022-09-12T17:02:52.680Z,29.2
2022-09-12T17:08:55.889Z,29
2022-09-12T17:14:52.385Z,28.7
2022-09-12T17:20:54.681Z,27.9
2022-09-12T17:26:54.216Z,27.5
2022-09-12T17:32:54.903Z,27.4
2022-09-12T17:38:54.634Z,26.8
2022-09-12T17:44:54.004Z,26.2
2022-09-12T17:50:53.617Z,25.9
2022-09-12T17:56:56.039Z,25.7
2022-09-12T18:02:53.552Z,25.3
2022-09-12T18:08:53.130Z,25
2022-09-12T18:14:52.712Z,24.7
2022-09-12T18:20:54.128Z,24.6
2022-09-12T18:26:53.847Z,24.4
2022-09-12T18:32:53.660Z,24.1
2022-09-12T18:38:53.560Z,23.9
2022-09-12T18:44:52.702Z,23.7
2022-09-12T18:50:53.652Z,23.6
2022-09-12T18:56:53.153Z,23.3
2022-09-12T19:02:53.071Z,23.3
2022-09-12T19:08:54.559Z,23.1
2022-09-12T19:14:54.069Z,22.9
2022-09-12T19:20:55.251Z,22.9
2022-09-12T19:26:54.411Z,22.8
2022-09-12T19:32:52.521Z,22.7
2022-09-12T19:38:55.071Z,22.6
2022-09-12T19:44:53.793Z,22.4
2022-09-12T19:50:54.890Z,22.3
2022-09-12T19:56:56.394Z,22.1
2022-09-12T20:02:54.665Z,22
2022-09-12T20:08:54.857Z,22
2022-09-12T20:14:52.783Z,22
2022-09-12T20:20:52.615Z,21.9
2022-09-12T20:26:52.818Z,21.9
2022-09-12T20:32:55.188Z,21.7
2022-09-12T20:38:52.550Z,21.4
2022-09-12T20:44:53.904Z,21.4
2022-09-12T20:50:56.372Z,21.4
2022-09-12T20:56:53.378Z,21.4
2022-09-12T21:02:53.245Z,21.3
2022-09-12T21:08:52.990Z,21.3
2022-09-12T21:14:53.191Z,21.2
2022-09-12T21:20:53.281Z,21.1
2022-09-12T21:26:53.389Z,20.9
2022-09-12T21:32:53.442Z,20.9
2022-09-12T21:38:53.118Z,20.9
2022-09-12T21:44:54.157Z,20.8
2022-09-12T21:50:53.891Z,20.8
2022-09-12T21:56:53.469Z,20.6
2022-09-12T22:02:56.004Z,20.6
2022-09-12T22:08:54.548Z,20.5
2022-09-12T22:14:54.140Z,20.4
2022-09-12T22:20:52.476Z,20.2
2022-09-12T22:26:52.578Z,20.2
2022-09-12T22:32:53.176Z,20.2
2022-09-12T22:38:53.715Z,20.1
2022-09-12T22:44:54.461Z,20
2022-09-12T22:50:53.662Z,19.9
2022-09-12T22:56:53.427Z,19.9
2022-09-12T23:02:52.908Z,19.7
2022-09-12T23:08:53.872Z,19.6
2022-09-12T23:14:52.544Z,19.5
2022-09-12T23:20:54.121Z,19.4
2022-09-12T23:26:54.555Z,19.4
2022-09-12T23:32:53.144Z,19.3
2022-09-12T23:38:53.364Z,19.2
2022-09-12T23:44:53.907Z,19
2022-09-12T23:50:53.258Z,19
2022-09-12T23:56:54.338Z,19
